South Wardsboro, Vermont
Current Conditions -  °F | °C
As of 3:54 PM on Friday 21 Nov 2014 (Local Time) from KDDH Reporting Station
Clear Clear  
Wind Chill: -7°   Ceiling: Unl
Heat Index: -2°   Visibility: 10mi
Dew Point: -16°   Wind: 10mph
Humidity: 36%   Direction: 300°WNW
Pressure: 30.27"   Gusts: 18mph
Location:  43.0205°N, 72.8064°W
Report Text: KDDH 212054Z AUTO 30009G16KT 10SM CLR M02/M16 A3027 RMK AO2 SLP263 T10221156 53031
Loading
Personal Weather Stations






























Interactive Weather Map New forecast layout! Learn more

10-Day Weather Forecast

Advertisements
Track Severe Weather on mobile